sensor_id;sensor_type;location;lat;lon;timestamp;temperature;humidity
18876;DHT22;9570;50.854;13.778;2023-05-20T00:00:24;12.60;99.90
18876;DHT22;9570;50.854;13.778;2023-05-20T00:02:49;12.50;99.90
18876;DHT22;9570;50.854;13.778;2023-05-20T00:05:15;12.60;99.90
18876;DHT22;9570;50.854;13.778;2023-05-20T00:07:40;12.60;99.90
18876;DHT22;9570;50.854;13.778;2023-05-20T00:10:06;12.60;99.90
18876;DHT22;9570;50.854;13.778;2023-05-20T00:12:31;12.50;99.90
18876;DHT22;9570;50.854;13.778;2023-05-20T00:14:57;12.60;99.90
18876;DHT22;9570;50.854;13.778;2023-05-20T00:17:23;12.60;99.90
18876;DHT22;9570;50.854;13.778;2023-05-20T00:19:50;12.60;99.90
18876;DHT22;9570;50.854;13.778;2023-05-20T00:22:16;12.60;99.90
18876;DHT22;9570;50.854;13.778;2023-05-20T00:24:41;12.60;99.90
18876;DHT22;9570;50.854;13.778;2023-05-20T00:27:06;12.60;99.90
18876;DHT22;9570;50.854;13.778;2023-05-20T00:29:32;12.60;99.90
18876;DHT22;9570;50.854;13.778;2023-05-20T00:31:58;12.60;99.90
18876;DHT22;9570;50.854;13.778;2023-05-20T00:34:23;12.60;99.90
18876;DHT22;9570;50.854;13.778;2023-05-20T00:36:49;12.60;99.90
18876;DHT22;9570;50.854;13.778;2023-05-20T00:39:15;12.70;99.90
18876;DHT22;9570;50.854;13.778;2023-05-20T00:41:41;12.70;99.90
18876;DHT22;9570;50.854;13.778;2023-05-20T00:44:06;12.70;99.90
18876;DHT22;9570;50.854;13.778;2023-05-20T00:46:32;12.60;99.90
18876;DHT22;9570;50.854;13.778;2023-05-20T00:48:57;12.70;99.90
18876;DHT22;9570;50.854;13.778;2023-05-20T00:51:23;12.70;99.90
18876;DHT22;9570;50.854;13.778;2023-05-20T00:53:49;12.70;99.90
18876;DHT22;9570;50.854;13.778;2023-05-20T00:56:15;12.70;99.90
18876;DHT22;9570;50.854;13.778;2023-05-20T00:58:41;12.70;99.90
18876;DHT22;9570;50.854;13.778;2023-05-20T01:01:07;12.60;99.90
18876;DHT22;9570;50.854;13.778;2023-05-20T01:03:33;12.70;99.90
18876;DHT22;9570;50.854;13.778;2023-05-20T01:05:58;12.70;99.90
18876;DHT22;9570;50.854;13.778;2023-05-20T01:08:25;12.70;99.90
18876;DHT22;9570;50.854;13.778;2023-05-20T01:11:01;12.70;99.90
18876;DHT22;9570;50.854;13.778;2023-05-20T01:13:35;12.70;99.90
18876;DHT22;9570;50.854;13.778;2023-05-20T01:16:03;12.70;99.90
18876;DHT22;9570;50.854;13.778;2023-05-20T01:18:29;12.70;99.90
18876;DHT22;9570;50.854;13.778;2023-05-20T01:20:57;12.70;99.90
18876;DHT22;9570;50.854;13.778;2023-05-20T01:23:37;12.70;99.90
18876;DHT22;9570;50.854;13.778;2023-05-20T01:26:03;12.70;99.90
18876;DHT22;9570;50.854;13.778;2023-05-20T01:28:31;12.70;99.90
18876;DHT22;9570;50.854;13.778;2023-05-20T01:31:00;12.70;99.90
18876;DHT22;9570;50.854;13.778;2023-05-20T01:33:28;12.70;99.90
18876;DHT22;9570;50.854;13.778;2023-05-20T01:35:54;12.60;99.90
18876;DHT22;9570;50.854;13.778;2023-05-20T01:38:22;12.50;99.90
18876;DHT22;9570;50.854;13.778;2023-05-20T01:40:48;12.40;99.90
18876;DHT22;9570;50.854;13.778;2023-05-20T01:43:16;12.50;99.90
18876;DHT22;9570;50.854;13.778;2023-05-20T01:45:43;12.50;99.90
18876;DHT22;9570;50.854;13.778;2023-05-20T01:48:10;12.60;99.90
18876;DHT22;9570;50.854;13.778;2023-05-20T01:50:36;12.60;99.90
18876;DHT22;9570;50.854;13.778;2023-05-20T01:53:02;12.50;99.90
18876;DHT22;9570;50.854;13.778;2023-05-20T01:55:27;12.50;99.90
18876;DHT22;9570;50.854;13.778;2023-05-20T01:57:53;12.60;99.90
18876;DHT22;9570;50.854;13.778;2023-05-20T02:00:18;12.60;99.90
18876;DHT22;9570;50.854;13.778;2023-05-20T02:02:44;12.40;99.90
18876;DHT22;9570;50.854;13.778;2023-05-20T02:05:09;12.50;99.90
18876;DHT22;9570;50.854;13.778;2023-05-20T02:07:35;12.50;99.90
18876;DHT22;9570;50.854;13.778;2023-05-20T02:10:00;12.50;99.90
18876;DHT22;9570;50.854;13.778;2023-05-20T02:12:26;12.50;99.90
18876;DHT22;9570;50.854;13.778;2023-05-20T02:14:51;12.50;99.90
18876;DHT22;9570;50.854;13.778;2023-05-20T02:17:17;12.60;99.90
18876;DHT22;9570;50.854;13.778;2023-05-20T02:19:43;12.50;99.90
18876;DHT22;9570;50.854;13.778;2023-05-20T02:22:10;12.40;99.90
18876;DHT22;9570;50.854;13.778;2023-05-20T02:24:35;12.40;99.90
18876;DHT22;9570;50.854;13.778;2023-05-20T02:27:01;12.40;99.90
18876;DHT22;9570;50.854;13.778;2023-05-20T02:29:27;12.40;99.90
18876;DHT22;9570;50.854;13.778;2023-05-20T02:31:52;12.50;99.90
18876;DHT22;9570;50.854;13.778;2023-05-20T02:34:19;12.40;99.90
18876;DHT22;9570;50.854;13.778;2023-05-20T02:36:44;12.40;99.90
18876;DHT22;9570;50.854;13.778;2023-05-20T02:39:10;12.40;99.90
18876;DHT22;9570;50.854;13.778;2023-05-20T02:41:36;12.40;99.90
18876;DHT22;9570;50.854;13.778;2023-05-20T02:44:02;12.30;99.90
18876;DHT22;9570;50.854;13.778;2023-05-20T02:46:27;12.30;99.90
18876;DHT22;9570;50.854;13.778;2023-05-20T02:48:53;12.20;99.90
18876;DHT22;9570;50.854;13.778;2023-05-20T02:51:18;12.20;99.90
18876;DHT22;9570;50.854;13.778;2023-05-20T02:53:44;12.10;99.90
18876;DHT22;9570;50.854;13.778;2023-05-20T02:56:10;12.10;99.90
18876;DHT22;9570;50.854;13.778;2023-05-20T02:58:36;12.10;99.90
18876;DHT22;9570;50.854;13.778;2023-05-20T03:01:01;12.00;99.90
18876;DHT22;9570;50.854;13.778;2023-05-20T03:03:27;12.00;99.90
18876;DHT22;9570;50.854;13.778;2023-05-20T03:05:53;12.00;99.90
18876;DHT22;9570;50.854;13.778;2023-05-20T03:08:20;12.00;99.90
18876;DHT22;9570;50.854;13.778;2023-05-20T03:10:46;11.90;99.90
18876;DHT22;9570;50.854;13.778;2023-05-20T03:13:12;11.90;99.90
18876;DHT22;9570;50.854;13.778;2023-05-20T03:15:40;11.90;99.90
18876;DHT22;9570;50.854;13.778;2023-05-20T03:18:06;11.80;99.90
18876;DHT22;9570;50.854;13.778;2023-05-20T03:20:35;11.80;99.90
18876;DHT22;9570;50.854;13.778;2023-05-20T03:23:04;11.80;99.90
18876;DHT22;9570;50.854;13.778;2023-05-20T03:25:30;11.70;99.90
18876;DHT22;9570;50.854;13.778;2023-05-20T03:27:55;11.60;99.90
18876;DHT22;9570;50.854;13.778;2023-05-20T03:30:22;11.60;99.90
18876;DHT22;9570;50.854;13.778;2023-05-20T03:32:48;11.60;99.90
18876;DHT22;9570;50.854;13.778;2023-05-20T03:35:13;11.60;99.90
18876;DHT22;9570;50.854;13.778;2023-05-20T03:37:39;11.50;99.90
18876;DHT22;9570;50.854;13.778;2023-05-20T03:40:06;11.60;99.90
18876;DHT22;9570;50.854;13.778;2023-05-20T03:42:32;11.60;99.90
18876;DHT22;9570;50.854;13.778;2023-05-20T03:44:58;11.60;99.90
18876;DHT22;9570;50.854;13.778;2023-05-20T03:47:24;11.60;99.90
18876;DHT22;9570;50.854;13.778;2023-05-20T03:49:50;11.60;99.90
18876;DHT22;9570;50.854;13.778;2023-05-20T03:52:15;11.60;99.90
18876;DHT22;9570;50.854;13.778;2023-05-20T03:54:41;11.60;99.90
18876;DHT22;9570;50.854;13.778;2023-05-20T03:57:06;11.60;99.90
18876;DHT22;9570;50.854;13.778;2023-05-20T03:59:32;11.70;99.90
18876;DHT22;9570;50.854;13.778;2023-05-20T04:01:57;11.70;99.90
18876;DHT22;9570;50.854;13.778;2023-05-20T04:04:23;11.70;99.90
18876;DHT22;9570;50.854;13.778;2023-05-20T04:06:48;11.70;99.90
18876;DHT22;9570;50.854;13.778;2023-05-20T04:09:14;11.70;99.90
18876;DHT22;9570;50.854;13.778;2023-05-20T04:11:40;11.70;99.90
18876;DHT22;9570;50.854;13.778;2023-05-20T04:14:05;11.80;99.90
18876;DHT22;9570;50.854;13.778;2023-05-20T04:16:31;11.80;99.90
18876;DHT22;9570;50.854;13.778;2023-05-20T04:18:56;11.80;99.90
18876;DHT22;9570;50.854;13.778;2023-05-20T04:21:23;11.70;99.90
18876;DHT22;9570;50.854;13.778;2023-05-20T04:23:49;11.70;99.90
18876;DHT22;9570;50.854;13.778;2023-05-20T04:26:14;11.80;99.90
18876;DHT22;9570;50.854;13.778;2023-05-20T04:28:40;11.80;99.90
18876;DHT22;9570;50.854;13.778;2023-05-20T04:31:06;11.80;99.90
18876;DHT22;9570;50.854;13.778;2023-05-20T04:33:32;11.90;99.90
18876;DHT22;9570;50.854;13.778;2023-05-20T04:36:02;11.80;99.90
18876;DHT22;9570;50.854;13.778;2023-05-20T04:38:28;11.80;99.90
18876;DHT22;9570;50.854;13.778;2023-05-20T04:41:00;11.90;99.90
18876;DHT22;9570;50.854;13.778;2023-05-20T04:43:27;12.00;99.90
18876;DHT22;9570;50.854;13.778;2023-05-20T04:45:57;12.00;99.90
18876;DHT22;9570;50.854;13.778;2023-05-20T04:48:24;12.10;99.90
18876;DHT22;9570;50.854;13.778;2023-05-20T04:50:50;12.10;99.90
18876;DHT22;9570;50.854;13.778;2023-05-20T04:53:16;12.10;99.90
18876;DHT22;9570;50.854;13.778;2023-05-20T04:55:42;12.10;99.90
18876;DHT22;9570;50.854;13.778;2023-05-20T04:58:08;12.20;99.90
18876;DHT22;9570;50.854;13.778;2023-05-20T05:00:40;12.20;99.90
18876;DHT22;9570;50.854;13.778;2023-05-20T05:03:06;12.20;99.90
18876;DHT22;9570;50.854;13.778;2023-05-20T05:05:34;12.30;99.90
18876;DHT22;9570;50.854;13.778;2023-05-20T05:08:02;12.30;99.90
18876;DHT22;9570;50.854;13.778;2023-05-20T05:10:27;12.30;99.90
18876;DHT22;9570;50.854;13.778;2023-05-20T05:12:53;12.30;99.90
18876;DHT22;9570;50.854;13.778;2023-05-20T05:15:18;12.30;99.90
18876;DHT22;9570;50.854;13.778;2023-05-20T05:17:44;12.40;99.90
18876;DHT22;9570;50.854;13.778;2023-05-20T05:20:10;12.30;99.90
18876;DHT22;9570;50.854;13.778;2023-05-20T05:22:35;12.30;99.90
18876;DHT22;9570;50.854;13.778;2023-05-20T05:25:02;12.20;99.90
18876;DHT22;9570;50.854;13.778;2023-05-20T05:27:27;12.20;99.90
18876;DHT22;9570;50.854;13.778;2023-05-20T05:29:53;12.10;99.90
18876;DHT22;9570;50.854;13.778;2023-05-20T05:32:18;12.20;99.90
18876;DHT22;9570;50.854;13.778;2023-05-20T05:34:44;12.30;99.90
18876;DHT22;9570;50.854;13.778;2023-05-20T05:37:09;12.30;99.90
18876;DHT22;9570;50.854;13.778;2023-05-20T05:39:35;12.30;99.90
18876;DHT22;9570;50.854;13.778;2023-05-20T05:42:02;12.30;99.90
18876;DHT22;9570;50.854;13.778;2023-05-20T05:44:28;12.30;99.90
18876;DHT22;9570;50.854;13.778;2023-05-20T05:46:53;12.30;99.90
18876;DHT22;9570;50.854;13.778;2023-05-20T05:49:18;12.20;99.90
18876;DHT22;9570;50.854;13.778;2023-05-20T05:51:44;12.20;99.90
18876;DHT22;9570;50.854;13.778;2023-05-20T05:54:09;12.20;99.90
18876;DHT22;9570;50.854;13.778;2023-05-20T05:56:35;12.30;99.90
18876;DHT22;9570;50.854;13.778;2023-05-20T05:59:00;12.30;99.90
18876;DHT22;9570;50.854;13.778;2023-05-20T06:01:26;12.30;99.90
18876;DHT22;9570;50.854;13.778;2023-05-20T06:03:51;12.40;99.90
18876;DHT22;9570;50.854;13.778;2023-05-20T06:06:17;12.30;99.90
18876;DHT22;9570;50.854;13.778;2023-05-20T06:08:42;12.30;99.90
18876;DHT22;9570;50.854;13.778;2023-05-20T06:11:08;12.30;99.90
18876;DHT22;9570;50.854;13.778;2023-05-20T06:13:34;12.30;99.90
18876;DHT22;9570;50.854;13.778;2023-05-20T06:16:00;12.30;99.90
18876;DHT22;9570;50.854;13.778;2023-05-20T06:18:26;12.30;99.90
18876;DHT22;9570;50.854;13.778;2023-05-20T06:20:56;12.30;99.90
18876;DHT22;9570;50.854;13.778;2023-05-20T06:23:21;12.30;99.90
18876;DHT22;9570;50.854;13.778;2023-05-20T06:25:47;12.30;99.90
18876;DHT22;9570;50.854;13.778;2023-05-20T06:28:13;12.40;99.90
18876;DHT22;9570;50.854;13.778;2023-05-20T06:30:40;12.40;99.90
18876;DHT22;9570;50.854;13.778;2023-05-20T06:33:05;12.40;99.90
18876;DHT22;9570;50.854;13.778;2023-05-20T06:35:31;12.50;99.90
18876;DHT22;9570;50.854;13.778;2023-05-20T06:37:59;12.40;99.90
18876;DHT22;9570;50.854;13.778;2023-05-20T06:40:26;12.60;99.90
18876;DHT22;9570;50.854;13.778;2023-05-20T06:42:51;12.70;99.90
18876;DHT22;9570;50.854;13.778;2023-05-20T06:45:17;12.80;99.90
18876;DHT22;9570;50.854;13.778;2023-05-20T06:47:43;12.80;99.90
18876;DHT22;9570;50.854;13.778;2023-05-20T06:50:08;12.90;99.90
18876;DHT22;9570;50.854;13.778;2023-05-20T06:52:34;12.90;99.90
18876;DHT22;9570;50.854;13.778;2023-05-20T06:54:59;13.00;99.90
18876;DHT22;9570;50.854;13.778;2023-05-20T06:57:25;13.00;99.90
18876;DHT22;9570;50.854;13.778;2023-05-20T06:59:51;13.10;99.90
18876;DHT22;9570;50.854;13.778;2023-05-20T07:02:16;13.10;99.90
18876;DHT22;9570;50.854;13.778;2023-05-20T07:04:41;13.10;99.90
18876;DHT22;9570;50.854;13.778;2023-05-20T07:07:07;13.00;99.90
18876;DHT22;9570;50.854;13.778;2023-05-20T07:09:32;13.00;99.90
18876;DHT22;9570;50.854;13.778;2023-05-20T07:11:58;13.10;99.90
18876;DHT22;9570;50.854;13.778;2023-05-20T07:14:23;13.20;99.90
18876;DHT22;9570;50.854;13.778;2023-05-20T07:16:49;13.00;99.90
18876;DHT22;9570;50.854;13.778;2023-05-20T07:19:14;13.20;99.90
18876;DHT22;9570;50.854;13.778;2023-05-20T07:21:40;13.50;99.90
18876;DHT22;9570;50.854;13.778;2023-05-20T07:24:05;13.60;99.90
18876;DHT22;9570;50.854;13.778;2023-05-20T07:26:31;13.70;99.90
18876;DHT22;9570;50.854;13.778;2023-05-20T07:29:01;13.70;99.90
18876;DHT22;9570;50.854;13.778;2023-05-20T07:31:26;14.50;99.90
18876;DHT22;9570;50.854;13.778;2023-05-20T07:33:51;14.90;99.90
18876;DHT22;9570;50.854;13.778;2023-05-20T07:36:17;15.10;99.90
18876;DHT22;9570;50.854;13.778;2023-05-20T07:38:42;15.50;99.90
18876;DHT22;9570;50.854;13.778;2023-05-20T07:41:08;15.70;99.90
18876;DHT22;9570;50.854;13.778;2023-05-20T07:43:33;16.00;99.90
18876;DHT22;9570;50.854;13.778;2023-05-20T07:45:59;16.40;99.90
18876;DHT22;9570;50.854;13.778;2023-05-20T07:48:25;16.60;99.90
18876;DHT22;9570;50.854;13.778;2023-05-20T07:50:50;16.60;99.90
18876;DHT22;9570;50.854;13.778;2023-05-20T07:53:16;16.50;99.90
18876;DHT22;9570;50.854;13.778;2023-05-20T07:55:42;16.10;99.90
18876;DHT22;9570;50.854;13.778;2023-05-20T07:58:07;15.90;99.90
18876;DHT22;9570;50.854;13.778;2023-05-20T08:00:33;16.00;99.90
18876;DHT22;9570;50.854;13.778;2023-05-20T08:02:58;15.80;99.90
18876;DHT22;9570;50.854;13.778;2023-05-20T08:05:24;15.80;99.90
18876;DHT22;9570;50.854;13.778;2023-05-20T08:07:49;16.10;99.90
18876;DHT22;9570;50.854;13.778;2023-05-20T08:10:15;16.40;99.90
18876;DHT22;9570;50.854;13.778;2023-05-20T08:12:40;16.50;99.90
18876;DHT22;9570;50.854;13.778;2023-05-20T08:15:06;16.60;99.90
18876;DHT22;9570;50.854;13.778;2023-05-20T08:17:32;16.70;99.90
18876;DHT22;9570;50.854;13.778;2023-05-20T08:19:59;17.30;99.90
18876;DHT22;9570;50.854;13.778;2023-05-20T08:22:25;17.40;99.90
18876;DHT22;9570;50.854;13.778;2023-05-20T08:24:51;17.70;99.90
18876;DHT22;9570;50.854;13.778;2023-05-20T08:27:16;18.10;99.90
18876;DHT22;9570;50.854;13.778;2023-05-20T08:29:43;18.70;99.90
18876;DHT22;9570;50.854;13.778;2023-05-20T08:32:09;19.30;99.90
18876;DHT22;9570;50.854;13.778;2023-05-20T08:34:35;19.20;99.90
18876;DHT22;9570;50.854;13.778;2023-05-20T08:37:01;19.50;99.90
18876;DHT22;9570;50.854;13.778;2023-05-20T08:39:27;19.60;99.90
18876;DHT22;9570;50.854;13.778;2023-05-20T08:41:52;20.10;99.90
18876;DHT22;9570;50.854;13.778;2023-05-20T08:44:18;20.60;99.90
18876;DHT22;9570;50.854;13.778;2023-05-20T08:46:45;20.10;99.90
18876;DHT22;9570;50.854;13.778;2023-05-20T08:49:11;19.80;99.90
18876;DHT22;9570;50.854;13.778;2023-05-20T08:51:38;19.70;99.90
18876;DHT22;9570;50.854;13.778;2023-05-20T08:54:03;20.10;99.90
18876;DHT22;9570;50.854;13.778;2023-05-20T08:56:30;20.40;99.90
18876;DHT22;9570;50.854;13.778;2023-05-20T08:58:57;20.90;99.90
18876;DHT22;9570;50.854;13.778;2023-05-20T09:01:25;21.20;99.90
18876;DHT22;9570;50.854;13.778;2023-05-20T09:03:51;21.70;99.90
18876;DHT22;9570;50.854;13.778;2023-05-20T09:06:17;21.60;99.90
18876;DHT22;9570;50.854;13.778;2023-05-20T09:08:48;20.40;99.90
18876;DHT22;9570;50.854;13.778;2023-05-20T09:11:14;20.40;99.90
18876;DHT22;9570;50.854;13.778;2023-05-20T09:13:40;20.10;99.90
18876;DHT22;9570;50.854;13.778;2023-05-20T09:16:05;20.20;99.90
18876;DHT22;9570;50.854;13.778;2023-05-20T09:18:31;21.00;99.90
18876;DHT22;9570;50.854;13.778;2023-05-20T09:20:57;21.20;99.90
18876;DHT22;9570;50.854;13.778;2023-05-20T09:23:22;21.60;99.90
18876;DHT22;9570;50.854;13.778;2023-05-20T09:25:50;21.60;99.90
18876;DHT22;9570;50.854;13.778;2023-05-20T09:28:18;21.90;99.90
18876;DHT22;9570;50.854;13.778;2023-05-20T09:30:44;21.50;99.90
18876;DHT22;9570;50.854;13.778;2023-05-20T09:33:10;22.00;99.90
18876;DHT22;9570;50.854;13.778;2023-05-20T09:35:36;22.50;99.90
18876;DHT22;9570;50.854;13.778;2023-05-20T09:38:04;22.40;99.90
18876;DHT22;9570;50.854;13.778;2023-05-20T09:40:30;22.30;99.90
18876;DHT22;9570;50.854;13.778;2023-05-20T09:43:03;22.30;99.90
18876;DHT22;9570;50.854;13.778;2023-05-20T09:45:29;22.60;99.90
18876;DHT22;9570;50.854;13.778;2023-05-20T09:47:55;22.00;99.90
18876;DHT22;9570;50.854;13.778;2023-05-20T09:50:23;22.50;99.90
18876;DHT22;9570;50.854;13.778;2023-05-20T09:52:50;22.10;99.90
18876;DHT22;9570;50.854;13.778;2023-05-20T09:55:16;22.10;99.90
18876;DHT22;9570;50.854;13.778;2023-05-20T09:57:42;22.30;99.90
18876;DHT22;9570;50.854;13.778;2023-05-20T10:00:08;21.90;99.90
18876;DHT22;9570;50.854;13.778;2023-05-20T10:02:34;21.70;99.90
18876;DHT22;9570;50.854;13.778;2023-05-20T10:05:03;21.60;99.90
18876;DHT22;9570;50.854;13.778;2023-05-20T10:11:00;22.00;99.90
18876;DHT22;9570;50.854;13.778;2023-05-20T10:13:45;23.20;99.90
18876;DHT22;9570;50.854;13.778;2023-05-20T10:19:06;23.20;99.90
18876;DHT22;9570;50.854;13.778;2023-05-20T10:21:34;22.30;99.90
18876;DHT22;9570;50.854;13.778;2023-05-20T10:24:10;22.00;99.90
18876;DHT22;9570;50.854;13.778;2023-05-20T10:26:40;21.60;99.90
18876;DHT22;9570;50.854;13.778;2023-05-20T10:29:18;21.40;99.90
18876;DHT22;9570;50.854;13.778;2023-05-20T10:31:48;21.20;99.90
18876;DHT22;9570;50.854;13.778;2023-05-20T10:34:18;21.10;99.90
18876;DHT22;9570;50.854;13.778;2023-05-20T10:39:28;21.50;99.90
18876;DHT22;9570;50.854;13.778;2023-05-20T10:42:05;21.80;99.90
18876;DHT22;9570;50.854;13.778;2023-05-20T10:44:42;21.50;99.90
18876;DHT22;9570;50.854;13.778;2023-05-20T10:47:08;21.50;99.90
18876;DHT22;9570;50.854;13.778;2023-05-20T10:49:34;21.30;99.90
18876;DHT22;9570;50.854;13.778;2023-05-20T10:52:00;21.30;99.90
18876;DHT22;9570;50.854;13.778;2023-05-20T10:54:26;21.30;99.90
18876;DHT22;9570;50.854;13.778;2023-05-20T10:56:52;21.20;99.90
18876;DHT22;9570;50.854;13.778;2023-05-20T10:59:18;21.30;99.90
18876;DHT22;9570;50.854;13.778;2023-05-20T11:01:45;21.20;99.90
18876;DHT22;9570;50.854;13.778;2023-05-20T11:04:13;21.10;99.90
18876;DHT22;9570;50.854;13.778;2023-05-20T11:06:49;20.90;99.90
18876;DHT22;9570;50.854;13.778;2023-05-20T11:09:15;21.00;99.90
18876;DHT22;9570;50.854;13.778;2023-05-20T11:11:41;21.00;99.90
18876;DHT22;9570;50.854;13.778;2023-05-20T11:14:06;21.00;99.90
18876;DHT22;9570;50.854;13.778;2023-05-20T11:16:32;20.80;99.90
18876;DHT22;9570;50.854;13.778;2023-05-20T11:18:57;20.80;99.90
18876;DHT22;9570;50.854;13.778;2023-05-20T11:21:22;20.40;99.90
18876;DHT22;9570;50.854;13.778;2023-05-20T11:23:50;20.10;99.90
18876;DHT22;9570;50.854;13.778;2023-05-20T11:26:16;20.10;99.90
18876;DHT22;9570;50.854;13.778;2023-05-20T11:28:41;20.20;99.90
18876;DHT22;9570;50.854;13.778;2023-05-20T11:31:07;20.20;99.90
18876;DHT22;9570;50.854;13.778;2023-05-20T11:33:32;20.20;99.90
18876;DHT22;9570;50.854;13.778;2023-05-20T11:35:58;20.20;99.90
18876;DHT22;9570;50.854;13.778;2023-05-20T11:38:23;20.00;99.90
18876;DHT22;9570;50.854;13.778;2023-05-20T11:40:54;19.90;99.90
18876;DHT22;9570;50.854;13.778;2023-05-20T11:43:22;19.80;99.90
18876;DHT22;9570;50.854;13.778;2023-05-20T11:45:53;19.50;99.90
18876;DHT22;9570;50.854;13.778;2023-05-20T11:48:19;19.40;99.90
18876;DHT22;9570;50.854;13.778;2023-05-20T11:50:46;19.30;99.90
18876;DHT22;9570;50.854;13.778;2023-05-20T11:53:17;19.40;99.90
18876;DHT22;9570;50.854;13.778;2023-05-20T11:55:56;19.50;99.90
18876;DHT22;9570;50.854;13.778;2023-05-20T11:58:24;19.50;99.90
18876;DHT22;9570;50.854;13.778;2023-05-20T12:00:51;19.60;99.90
18876;DHT22;9570;50.854;13.778;2023-05-20T12:03:16;19.70;99.90
18876;DHT22;9570;50.854;13.778;2023-05-20T12:05:42;19.70;99.90
18876;DHT22;9570;50.854;13.778;2023-05-20T12:08:08;19.70;99.90
18876;DHT22;9570;50.854;13.778;2023-05-20T12:10:34;19.80;99.90
18876;DHT22;9570;50.854;13.778;2023-05-20T12:13:01;19.70;99.90
18876;DHT22;9570;50.854;13.778;2023-05-20T12:15:27;19.60;99.90
18876;DHT22;9570;50.854;13.778;2023-05-20T12:17:53;19.70;99.90
18876;DHT22;9570;50.854;13.778;2023-05-20T12:20:21;19.60;99.90
18876;DHT22;9570;50.854;13.778;2023-05-20T12:22:47;19.70;99.90
18876;DHT22;9570;50.854;13.778;2023-05-20T12:25:14;19.90;99.90
18876;DHT22;9570;50.854;13.778;2023-05-20T12:27:41;20.00;99.90
18876;DHT22;9570;50.854;13.778;2023-05-20T12:30:08;19.90;99.90
18876;DHT22;9570;50.854;13.778;2023-05-20T12:32:38;19.80;99.90
18876;DHT22;9570;50.854;13.778;2023-05-20T12:35:03;19.70;99.90
18876;DHT22;9570;50.854;13.778;2023-05-20T12:37:29;19.70;99.90
18876;DHT22;9570;50.854;13.778;2023-05-20T12:39:55;19.90;99.90
18876;DHT22;9570;50.854;13.778;2023-05-20T12:42:20;20.10;99.90
18876;DHT22;9570;50.854;13.778;2023-05-20T12:44:46;20.30;99.90
18876;DHT22;9570;50.854;13.778;2023-05-20T12:47:11;20.30;99.90
18876;DHT22;9570;50.854;13.778;2023-05-20T12:49:37;20.30;99.90
18876;DHT22;9570;50.854;13.778;2023-05-20T12:52:02;20.30;99.90
18876;DHT22;9570;50.854;13.778;2023-05-20T12:54:28;20.20;99.90
18876;DHT22;9570;50.854;13.778;2023-05-20T12:56:53;20.30;99.90
18876;DHT22;9570;50.854;13.778;2023-05-20T12:59:19;20.30;99.90
18876;DHT22;9570;50.854;13.778;2023-05-20T13:01:45;20.20;99.90
18876;DHT22;9570;50.854;13.778;2023-05-20T13:04:11;20.10;99.90
18876;DHT22;9570;50.854;13.778;2023-05-20T13:06:36;19.90;99.90
18876;DHT22;9570;50.854;13.778;2023-05-20T13:09:02;19.80;99.90
18876;DHT22;9570;50.854;13.778;2023-05-20T13:11:27;19.80;99.90
18876;DHT22;9570;50.854;13.778;2023-05-20T13:13:54;19.80;99.90
18876;DHT22;9570;50.854;13.778;2023-05-20T13:16:21;19.80;99.90
18876;DHT22;9570;50.854;13.778;2023-05-20T13:18:47;19.90;99.90
18876;DHT22;9570;50.854;13.778;2023-05-20T13:21:12;19.90;99.90
18876;DHT22;9570;50.854;13.778;2023-05-20T13:23:40;19.80;99.90
18876;DHT22;9570;50.854;13.778;2023-05-20T13:26:05;19.70;99.90
18876;DHT22;9570;50.854;13.778;2023-05-20T13:28:31;19.70;99.90
18876;DHT22;9570;50.854;13.778;2023-05-20T13:30:56;19.70;99.90
18876;DHT22;9570;50.854;13.778;2023-05-20T13:33:21;19.70;99.90
18876;DHT22;9570;50.854;13.778;2023-05-20T13:35:48;19.70;99.90
18876;DHT22;9570;50.854;13.778;2023-05-20T13:38:14;19.80;99.90
18876;DHT22;9570;50.854;13.778;2023-05-20T13:40:39;19.90;99.90
18876;DHT22;9570;50.854;13.778;2023-05-20T13:43:05;19.90;99.90
18876;DHT22;9570;50.854;13.778;2023-05-20T13:45:30;19.90;99.90
18876;DHT22;9570;50.854;13.778;2023-05-20T13:47:56;19.90;99.90
18876;DHT22;9570;50.854;13.778;2023-05-20T13:50:21;19.80;99.90
18876;DHT22;9570;50.854;13.778;2023-05-20T13:52:47;19.80;99.90
18876;DHT22;9570;50.854;13.778;2023-05-20T13:55:14;19.80;99.90
18876;DHT22;9570;50.854;13.778;2023-05-20T13:57:41;19.80;99.90
18876;DHT22;9570;50.854;13.778;2023-05-20T14:00:07;19.80;99.90
18876;DHT22;9570;50.854;13.778;2023-05-20T14:02:33;19.80;99.90
18876;DHT22;9570;50.854;13.778;2023-05-20T14:04:59;19.80;99.90
18876;DHT22;9570;50.854;13.778;2023-05-20T14:07:24;19.80;99.90
18876;DHT22;9570;50.854;13.778;2023-05-20T14:09:50;19.80;99.90
18876;DHT22;9570;50.854;13.778;2023-05-20T14:12:15;19.80;99.90
18876;DHT22;9570;50.854;13.778;2023-05-20T14:14:41;19.80;99.90
18876;DHT22;9570;50.854;13.778;2023-05-20T14:17:06;19.80;99.90
18876;DHT22;9570;50.854;13.778;2023-05-20T14:19:32;19.80;99.90
18876;DHT22;9570;50.854;13.778;2023-05-20T14:21:57;19.80;99.90
18876;DHT22;9570;50.854;13.778;2023-05-20T14:24:26;19.90;99.90
18876;DHT22;9570;50.854;13.778;2023-05-20T14:26:52;20.10;99.90
18876;DHT22;9570;50.854;13.778;2023-05-20T14:29:18;20.20;99.90
18876;DHT22;9570;50.854;13.778;2023-05-20T14:31:43;20.30;99.90
18876;DHT22;9570;50.854;13.778;2023-05-20T14:34:09;20.40;99.90
18876;DHT22;9570;50.854;13.778;2023-05-20T14:36:35;20.50;99.90
18876;DHT22;9570;50.854;13.778;2023-05-20T14:39:00;20.50;99.90
18876;DHT22;9570;50.854;13.778;2023-05-20T14:41:26;20.40;99.90
18876;DHT22;9570;50.854;13.778;2023-05-20T14:43:51;20.40;99.90
18876;DHT22;9570;50.854;13.778;2023-05-20T14:46:17;20.40;99.90
18876;DHT22;9570;50.854;13.778;2023-05-20T14:48:42;20.40;99.90
18876;DHT22;9570;50.854;13.778;2023-05-20T14:51:08;20.50;99.90
18876;DHT22;9570;50.854;13.778;2023-05-20T14:53:33;20.40;99.90
18876;DHT22;9570;50.854;13.778;2023-05-20T14:55:59;20.30;99.90
18876;DHT22;9570;50.854;13.778;2023-05-20T14:58:24;20.20;99.90
18876;DHT22;9570;50.854;13.778;2023-05-20T15:00:52;20.20;99.90
18876;DHT22;9570;50.854;13.778;2023-05-20T15:03:17;20.20;99.90
18876;DHT22;9570;50.854;13.778;2023-05-20T15:05:43;20.20;99.90
18876;DHT22;9570;50.854;13.778;2023-05-20T15:08:09;20.30;99.90
18876;DHT22;9570;50.854;13.778;2023-05-20T15:10:34;20.30;99.90
18876;DHT22;9570;50.854;13.778;2023-05-20T15:13:00;20.30;99.90
18876;DHT22;9570;50.854;13.778;2023-05-20T15:15:26;20.30;99.90
18876;DHT22;9570;50.854;13.778;2023-05-20T15:17:51;20.30;99.90
18876;DHT22;9570;50.854;13.778;2023-05-20T15:20:16;20.30;99.90
18876;DHT22;9570;50.854;13.778;2023-05-20T15:22:42;20.40;99.90
18876;DHT22;9570;50.854;13.778;2023-05-20T15:25:12;20.40;99.90
18876;DHT22;9570;50.854;13.778;2023-05-20T15:27:37;20.40;99.90
18876;DHT22;9570;50.854;13.778;2023-05-20T15:30:03;20.40;99.90
18876;DHT22;9570;50.854;13.778;2023-05-20T15:32:28;20.40;99.90